Time;durP1;ratioP1;P1;durP2;ratioP2;P2;SDS_P1;SDS_P2;PMS_P1;PMS_P2;Temp;Humidity;BMP_temperature;BMP_pressure;BME280_temperature;BME280_humidity;BME280_pressure;Samples;Min_cycle;Max_cycle;Signal;HPM_P1;HPM_P2
2023/10/30 00:00:56;;;;;;;7.35;5.50;;;;;;;11.60;61.86;95297.84;5098751;28;20196;-75
2023/10/30 00:03:24;;;;;;;9.02;5.90;;;;;;;11.63;61.63;95299.09;5099589;28;20587;-75
2023/10/30 00:05:54;;;;;;;6.43;5.78;;;;;;;11.59;61.61;95301.78;5117153;28;20180;-75
2023/10/30 00:08:21;;;;;;;6.47;5.22;;;;;;;11.53;62.29;95301.22;5116853;28;20184;-75
2023/10/30 00:10:51;;;;;;;6.72;4.85;;;;;;;11.53;61.93;95298.47;5099502;28;20195;-75
2023/10/30 00:13:20;;;;;;;5.97;4.60;;;;;;;11.57;62.22;95304.06;5099369;28;20211;-75
2023/10/30 00:15:49;;;;;;;5.88;4.95;;;;;;;11.56;62.05;95294.19;5116407;28;20207;-75
2023/10/30 00:18:20;;;;;;;11.90;5.25;;;;;;;11.51;62.04;95303.53;5116717;28;20223;-76
2023/10/30 00:20:48;;;;;;;6.60;5.15;;;;;;;11.46;62.23;95295.50;5116103;28;20259;-76
2023/10/30 00:23:17;;;;;;;6.53;4.80;;;;;;;11.48;62.47;95293.19;5120824;28;20600;-78
2023/10/30 00:25:46;;;;;;;6.53;5.18;;;;;;;11.42;62.23;95294.59;5099353;28;20203;-77
2023/10/30 00:28:13;;;;;;;5.75;4.90;;;;;;;11.39;62.49;95300.03;5098446;28;20594;-76
2023/10/30 00:30:41;;;;;;;7.90;5.25;;;;;;;11.36;62.50;95304.28;5098675;28;20198;-75
2023/10/30 00:33:07;;;;;;;5.65;4.78;;;;;;;11.38;62.65;95303.94;5116405;28;20191;-75
2023/10/30 00:35:41;;;;;;;5.70;4.90;;;;;;;11.40;62.50;95296.09;5116074;28;20196;-75
2023/10/30 00:38:12;;;;;;;6.85;5.10;;;;;;;11.39;62.60;95300.81;5116402;28;20184;-75
2023/10/30 00:40:40;;;;;;;5.00;4.15;;;;;;;11.40;62.35;95290.56;5098185;28;20191;-75
2023/10/30 00:43:09;;;;;;;6.55;4.55;;;;;;;11.41;62.52;95289.44;5116326;28;20261;-75
2023/10/30 00:45:37;;;;;;;6.93;4.63;;;;;;;11.36;62.55;95298.75;5098178;28;20502;-75
2023/10/30 00:48:06;;;;;;;6.00;4.30;;;;;;;11.30;62.79;95292.72;5116206;28;20199;-75
2023/10/30 00:50:33;;;;;;;5.93;4.50;;;;;;;11.32;62.88;95297.88;5115709;28;20508;-75
2023/10/30 00:53:02;;;;;;;6.85;4.68;;;;;;;11.26;62.53;95296.53;5115568;28;20510;-75
2023/10/30 00:55:30;;;;;;;5.15;4.22;;;;;;;11.18;62.77;95298.25;5098326;28;20209;-75
2023/10/30 00:57:56;;;;;;;5.95;4.50;;;;;;;11.09;62.84;95292.09;5098570;28;20214;-75
2023/10/30 01:00:27;;;;;;;5.95;4.50;;;;;;;10.98;63.40;95294.56;5115969;28;20180;-76
2023/10/30 01:02:56;;;;;;;8.27;4.47;;;;;;;11.02;63.45;95295.44;5115383;28;20252;-76
2023/10/30 01:05:24;;;;;;;7.32;5.45;;;;;;;11.06;63.44;95295.56;5115845;28;20525;-75
2023/10/30 01:07:54;;;;;;;10.00;5.22;;;;;;;11.11;63.15;95288.97;5115975;28;20168;-75
2023/10/30 01:10:22;;;;;;;5.13;4.10;;;;;;;11.05;63.04;95296.72;5115723;28;20180;-75
2023/10/30 01:12:49;;;;;;;5.95;4.25;;;;;;;11.00;63.31;95295.00;5115782;28;20194;-76
2023/10/30 01:15:17;;;;;;;6.35;4.30;;;;;;;11.00;63.11;95289.50;5116154;28;20198;-76
2023/10/30 01:17:44;;;;;;;5.90;4.00;;;;;;;10.96;63.41;95291.31;5098478;28;20212;-76
2023/10/30 01:20:12;;;;;;;4.80;4.15;;;;;;;10.89;63.56;95288.34;5098129;28;20215;-76
2023/10/30 01:22:39;;;;;;;5.53;4.10;;;;;;;10.88;63.26;95289.53;5098104;28;20200;-76
2023/10/30 01:25:09;;;;;;;5.68;4.05;;;;;;;10.87;63.61;95287.91;5115671;28;20184;-77
2023/10/30 01:27:39;;;;;;;4.78;4.07;;;;;;;10.84;63.54;95294.13;5097823;28;20192;-77
2023/10/30 01:30:11;;;;;;;5.70;4.25;;;;;;;10.77;63.62;95288.41;5115626;28;20179;-76
2023/10/30 01:32:41;;;;;;;4.85;3.58;;;;;;;10.72;63.33;95288.66;5115895;28;20196;-77
2023/10/30 01:35:11;;;;;;;6.22;4.10;;;;;;;10.74;63.77;95289.88;5115071;28;20172;-76
2023/10/30 01:37:47;;;;;;;6.35;4.20;;;;;;;10.72;63.66;95281.19;5097925;28;20228;-76
2023/10/30 01:40:14;;;;;;;4.70;4.20;;;;;;;10.70;64.26;95282.66;5097739;28;20195;-75
2023/10/30 01:42:50;;;;;;;6.07;4.32;;;;;;;10.77;64.41;95282.88;5097928;28;20191;-75
2023/10/30 01:45:17;;;;;;;5.00;4.05;;;;;;;10.80;63.89;95283.00;5098478;28;20587;-75
2023/10/30 01:47:43;;;;;;;4.78;3.90;;;;;;;10.77;64.14;95286.44;5098005;28;20195;-75
2023/10/30 01:50:14;;;;;;;4.40;3.55;;;;;;;10.71;64.35;95287.84;5115507;28;20196;-75
2023/10/30 01:52:40;;;;;;;6.95;4.22;;;;;;;10.69;63.92;95292.09;5115186;28;20250;-75
2023/10/30 01:55:07;;;;;;;5.95;4.00;;;;;;;10.69;64.19;95286.59;5097267;28;20315;-75
2023/10/30 01:57:34;;;;;;;6.32;4.03;;;;;;;10.68;63.99;95288.53;5100290;28;20223;-75
2023/10/30 02:00:03;;;;;;;4.15;3.40;;;;;;;10.68;64.21;95296.81;5101821;28;20195;-75
2023/10/30 02:02:35;;;;;;;5.68;3.60;;;;;;;10.66;64.41;95293.59;5119437;28;20242;-74
2023/10/30 02:05:02;;;;;;;4.65;3.72;;;;;;;10.66;63.96;95295.56;5101140;28;20214;-75
2023/10/30 02:07:34;;;;;;;5.22;3.97;;;;;;;10.64;64.02;95306.13;5118946;28;20191;-75
2023/10/30 02:10:02;;;;;;;4.03;3.60;;;;;;;10.57;64.21;95296.50;5102073;28;20227;-75
2023/10/30 02:12:30;;;;;;;4.30;3.60;;;;;;;10.55;64.35;95307.06;5119216;28;20188;-76
2023/10/30 02:14:57;;;;;;;5.25;4.00;;;;;;;10.57;64.44;95309.50;5118826;28;20588;-75
2023/10/30 02:17:27;;;;;;;6.22;3.83;;;;;;;10.56;64.27;95299.59;5118693;28;20639;-75
2023/10/30 02:19:54;;;;;;;4.20;3.80;;;;;;;10.53;64.42;95303.03;5119212;28;20183;-76
2023/10/30 02:22:21;;;;;;;4.60;3.95;;;;;;;10.49;64.56;95299.38;5101215;28;20191;-76
2023/10/30 02:24:49;;;;;;;5.32;3.63;;;;;;;10.46;64.40;95306.41;5101558;28;20211;-75
2023/10/30 02:27:20;;;;;;;5.63;3.78;;;;;;;10.47;64.46;95312.72;5119287;28;20183;-75
2023/10/30 02:29:48;;;;;;;5.75;3.88;;;;;;;10.45;64.68;95302.00;5101597;28;20199;-77
2023/10/30 02:32:15;;;;;;;4.20;3.53;;;;;;;10.47;64.34;95305.25;5101271;28;20196;-76
2023/10/30 02:34:43;;;;;;;7.03;3.95;;;;;;;10.41;64.33;95303.06;5101315;28;20207;-76
2023/10/30 02:37:11;;;;;;;5.07;3.85;;;;;;;10.38;64.42;95310.06;5101108;28;20211;-75
2023/10/30 02:39:39;;;;;;;6.57;3.90;;;;;;;10.37;64.71;95311.22;5100556;28;20211;-75
2023/10/30 02:42:08;;;;;;;7.57;3.90;;;;;;;10.34;64.48;95304.44;5101159;28;20237;-75
2023/10/30 02:44:39;;;;;;;5.78;4.10;;;;;;;10.32;64.57;95294.91;5100563;28;20199;-75
2023/10/30 02:47:07;;;;;;;5.93;4.07;;;;;;;10.32;64.38;95304.00;5118586;28;20188;-76
2023/10/30 02:49:35;;;;;;;4.57;4.13;;;;;;;10.21;64.53;95302.00;5100339;28;20608;-76
2023/10/30 02:52:03;;;;;;;7.28;4.40;;;;;;;10.17;64.74;95298.31;5118500;28;20622;-76
2023/10/30 02:54:31;;;;;;;4.78;4.05;;;;;;;10.14;64.58;95305.34;5101298;28;20219;-76
2023/10/30 02:56:58;;;;;;;4.68;4.10;;;;;;;10.10;64.82;95304.41;5100895;28;20211;-76
2023/10/30 02:59:27;;;;;;;4.68;3.95;;;;;;;10.06;65.32;95309.03;5118244;28;20623;-76
2023/10/30 03:01:58;;;;;;;4.75;4.22;;;;;;;10.08;65.50;95304.75;5118258;28;20239;-75
2023/10/30 03:04:26;;;;;;;6.07;4.75;;;;;;;10.12;65.29;95311.19;5099368;28;20520;-75
2023/10/30 03:06:53;;;;;;;8.95;4.63;;;;;;;10.17;65.45;95303.81;5099628;28;20196;-76
2023/10/30 03:09:21;;;;;;;6.10;4.75;;;;;;;10.17;65.14;95298.31;5099581;28;20210;-75
2023/10/30 03:11:50;;;;;;;5.50;4.38;;;;;;;10.09;65.02;95306.38;5117733;28;20188;-75
2023/10/30 03:14:18;;;;;;;6.50;5.07;;;;;;;10.04;64.97;95303.84;5099169;28;20204;-75
2023/10/30 03:16:54;;;;;;;5.63;4.13;;;;;;;9.97;65.11;95311.06;5100252;28;20215;-75
2023/10/30 03:19:23;;;;;;;7.13;4.45;;;;;;;9.92;65.31;95317.59;5100311;28;20277;-76
2023/10/30 03:21:50;;;;;;;6.53;4.75;;;;;;;9.91;65.52;95317.94;5100455;28;20196;-76
2023/10/30 03:24:18;;;;;;;5.25;4.43;;;;;;;9.86;65.34;95319.78;5117518;28;20212;-75
2023/10/30 03:26:47;;;;;;;7.05;4.45;;;;;;;9.78;66.16;95323.44;5100537;28;20203;-76
2023/10/30 03:29:14;;;;;;;6.10;4.50;;;;;;;9.84;66.50;95319.31;5117827;28;20183;-76
2023/10/30 03:31:41;;;;;;;9.32;7.15;;;;;;;9.92;66.11;95320.38;5100408;28;20199;-77
2023/10/30 03:34:11;;;;;;;9.00;5.93;;;;;;;9.97;66.19;95322.09;5117353;28;20519;-77
2023/10/30 03:36:42;;;;;;;6.60;5.28;;;;;;;9.98;65.78;95327.25;5117704;28;20220;-77
2023/10/30 03:39:10;;;;;;;7.05;5.40;;;;;;;9.97;65.73;95328.41;5099819;28;20206;-77
2023/10/30 03:41:40;;;;;;;6.93;4.60;;;;;;;9.94;65.45;95328.28;5100045;28;20196;-77
2023/10/30 03:44:08;;;;;;;6.63;5.20;;;;;;;9.88;65.73;95331.25;5099234;28;20191;-77
2023/10/30 03:46:35;;;;;;;6.05;5.05;;;;;;;9.87;65.78;95332.38;5099877;28;20187;-77
2023/10/30 03:49:06;;;;;;;7.80;5.15;;;;;;;9.89;65.74;95324.59;5082745;28;20287;-75
2023/10/30 03:51:33;;;;;;;7.80;5.03;;;;;;;9.84;65.86;95324.84;5117077;28;20194;-75
2023/10/30 03:54:04;;;;;;;5.85;4.50;;;;;;;9.83;65.83;95325.97;5099541;28;20244;-75
2023/10/30 03:56:31;;;;;;;7.20;5.45;;;;;;;9.81;65.89;95327.47;5099368;28;20199;-75
2023/10/30 03:59:01;;;;;;;9.20;5.45;;;;;;;9.81;66.12;95331.03;5117010;28;20191;-75
2023/10/30 04:01:30;;;;;;;7.65;5.07;;;;;;;9.85;66.09;95320.13;5099825;28;20232;-77
2023/10/30 04:04:00;;;;;;;7.95;4.88;;;;;;;9.82;66.01;95324.34;5117643;28;20180;-77
2023/10/30 04:06:27;;;;;;;10.13;5.53;;;;;;;9.81;66.18;95324.72;5099543;28;20317;-77
2023/10/30 04:08:56;;;;;;;7.63;5.18;;;;;;;9.82;65.99;95326.31;5116990;28;20191;-77
2023/10/30 04:11:24;;;;;;;7.15;5.05;;;;;;;9.77;65.87;95321.03;5116864;28;20283;-77
2023/10/30 04:13:51;;;;;;;6.57;5.30;;;;;;;9.72;65.99;95324.78;5099119;28;20252;-77
2023/10/30 04:16:18;;;;;;;6.57;5.32;;;;;;;9.65;66.13;95325.34;5098994;28;20198;-77
2023/10/30 04:18:47;;;;;;;8.50;5.53;;;;;;;9.62;66.25;95323.31;5115994;28;20219;-77
2023/10/30 04:21:15;;;;;;;9.20;5.93;;;;;;;9.59;66.06;95320.41;5099109;28;20209;-77
2023/10/30 04:23:44;;;;;;;9.02;5.68;;;;;;;9.56;66.44;95321.09;5100235;28;20187;-77
2023/10/30 04:26:15;;;;;;;7.05;5.57;;;;;;;9.54;66.35;95321.41;5117918;28;20506;-76
2023/10/30 04:28:46;;;;;;;7.28;5.78;;;;;;;9.58;66.45;95316.84;5100420;28;20195;-76
2023/10/30 04:31:13;;;;;;;9.27;6.15;;;;;;;9.65;66.43;95321.78;5100063;28;20236;-76
2023/10/30 04:33:40;;;;;;;8.27;6.10;;;;;;;9.63;66.63;95322.16;5100263;28;20200;-76
2023/10/30 04:36:08;;;;;;;7.70;5.88;;;;;;;9.65;66.67;95319.84;5100073;28;20199;-76
2023/10/30 04:38:36;;;;;;;10.43;5.85;;;;;;;9.67;66.23;95326.97;5117020;28;20203;-76
2023/10/30 04:41:03;;;;;;;8.73;5.25;;;;;;;9.68;66.31;95325.81;5098695;28;20192;-76
2023/10/30 04:43:31;;;;;;;8.27;6.13;;;;;;;9.61;66.32;95324.41;5116040;28;20215;-77
2023/10/30 04:45:59;;;;;;;11.60;6.60;;;;;;;9.59;66.43;95320.41;5098309;28;20214;-77
2023/10/30 04:48:32;;;;;;;12.52;7.43;;;;;;;9.57;66.39;95326.25;5098920;28;20200;-76
2023/10/30 04:51:01;;;;;;;10.27;6.50;;;;;;;9.56;66.53;95332.13;5099038;28;20195;-77
2023/10/30 04:53:29;;;;;;;9.48;6.57;;;;;;;9.56;66.52;95324.66;5098599;28;20200;-77
2023/10/30 04:55:57;;;;;;;11.00;6.38;;;;;;;9.55;66.64;95323.06;5116120;28;20313;-76
2023/10/30 04:58:24;;;;;;;7.82;6.30;;;;;;;9.58;66.60;95329.81;5098209;28;20215;-76
2023/10/30 05:00:51;;;;;;;9.93;6.38;;;;;;;9.58;66.59;95327.84;5115422;28;20248;-77
2023/10/30 05:03:19;;;;;;;10.68;6.75;;;;;;;9.58;66.58;95329.81;5115528;28;20172;-77
2023/10/30 05:05:45;;;;;;;10.20;7.03;;;;;;;9.53;66.49;95330.03;5115963;28;20180;-76
2023/10/30 05:08:12;;;;;;;11.52;7.45;;;;;;;9.53;66.51;95330.84;5097659;28;20587;-77
2023/10/30 05:10:39;;;;;;;9.10;7.20;;;;;;;9.51;66.61;95338.63;5098814;28;20210;-75
2023/10/30 05:13:06;;;;;;;12.73;8.40;;;;;;;9.46;66.48;95340.78;5116008;28;20182;-74
2023/10/30 05:15:32;;;;;;;11.15;7.57;;;;;;;9.43;66.91;95350.53;5098431;28;20199;-73
2023/10/30 05:17:59;;;;;;;11.60;8.13;;;;;;;9.44;66.55;95346.66;5098368;28;20427;-75
2023/10/30 05:20:27;;;;;;;10.90;7.32;;;;;;;9.48;67.17;95347.56;5098473;28;20287;-74
2023/10/30 05:22:54;;;;;;;17.80;8.77;;;;;;;9.47;67.01;95351.44;5115927;28;20184;-74
2023/10/30 05:25:21;;;;;;;10.05;7.57;;;;;;;9.49;66.75;95357.44;5098912;28;20203;-74
2023/10/30 05:27:48;;;;;;;10.85;8.02;;;;;;;9.48;67.02;95353.09;5099046;28;20207;-74
2023/10/30 05:30:15;;;;;;;11.27;7.78;;;;;;;9.53;66.88;95352.06;5099247;28;20199;-74
2023/10/30 05:32:42;;;;;;;12.38;7.35;;;;;;;9.54;66.83;95362.72;5102681;28;20525;-74
2023/10/30 05:35:09;;;;;;;14.13;7.43;;;;;;;9.58;66.73;95360.91;5101901;28;20199;-74
2023/10/30 05:37:37;;;;;;;12.95;8.27;;;;;;;9.60;66.76;95363.31;5119757;28;20269;-74
2023/10/30 05:40:05;;;;;;;12.85;7.10;;;;;;;9.64;66.90;95367.81;5119724;28;20206;-74
2023/10/30 05:42:31;;;;;;;10.45;7.18;;;;;;;9.65;67.07;95372.16;5119740;28;20259;-74
2023/10/30 05:44:59;;;;;;;13.38;7.35;;;;;;;9.66;67.07;95381.25;5101708;28;20199;-74
2023/10/30 05:47:25;;;;;;;9.90;7.35;;;;;;;9.68;67.15;95370.69;5119692;28;20184;-74
2023/10/30 05:49:52;;;;;;;13.05;7.45;;;;;;;9.72;67.21;95379.06;5101916;28;20207;-74
2023/10/30 05:52:19;;;;;;;14.77;7.88;;;;;;;9.74;67.42;95379.56;5101646;28;20225;-75
2023/10/30 05:54:50;;;;;;;13.70;7.70;;;;;;;9.78;67.15;95375.78;5119238;28;20529;-74
2023/10/30 05:57:17;;;;;;;10.70;7.28;;;;;;;9.81;67.44;95379.81;5101634;28;20302;-75
2023/10/30 05:59:43;;;;;;;11.18;7.30;;;;;;;9.83;67.57;95386.56;5119961;28;20202;-75
2023/10/30 06:02:10;;;;;;;11.43;7.78;;;;;;;9.86;67.55;95385.88;5102396;28;20239;-73
2023/10/30 06:04:37;;;;;;;18.73;9.75;;;;;;;9.86;67.66;95383.13;5119861;28;20184;-74
2023/10/30 06:07:04;;;;;;;16.90;9.70;;;;;;;9.87;68.02;95390.25;5101495;28;20630;-78
2023/10/30 06:09:31;;;;;;;17.13;8.30;;;;;;;9.92;67.68;95392.00;5119993;28;20187;-74
2023/10/30 06:11:59;;;;;;;12.85;8.25;;;;;;;10.00;67.90;95396.59;5102005;28;20207;-75
2023/10/30 06:14:26;;;;;;;14.65;9.20;;;;;;;10.03;68.17;95395.94;5118885;28;20214;-75
2023/10/30 06:16:52;;;;;;;18.10;9.50;;;;;;;10.10;67.99;95393.41;5102110;28;20199;-75
2023/10/30 06:19:19;;;;;;;15.02;9.18;;;;;;;10.20;68.57;95399.63;5101435;28;20207;-74
2023/10/30 06:21:46;;;;;;;11.48;7.78;;;;;;;10.29;68.29;95389.34;5102901;28;20536;-74
2023/10/30 06:24:13;;;;;;;14.43;8.35;;;;;;;10.42;67.82;95401.16;5119587;28;20184;-74
2023/10/30 06:26:40;;;;;;;12.88;7.68;;;;;;;10.52;67.61;95395.19;5119396;28;20195;-74
2023/10/30 06:29:09;;;;;;;9.52;6.28;;;;;;;10.64;67.41;95399.91;5101564;28;20608;-74
2023/10/30 06:31:36;;;;;;;9.35;7.05;;;;;;;10.76;66.99;95397.16;5100680;28;20200;-74
2023/10/30 06:34:02;;;;;;;9.75;6.45;;;;;;;10.89;66.59;95398.75;5101270;28;20241;-74
2023/10/30 06:36:30;;;;;;;8.48;6.10;;;;;;;11.00;66.46;95402.66;5101506;28;20199;-74
2023/10/30 06:38:57;;;;;;;7.85;6.80;;;;;;;11.15;66.24;95409.41;5100837;28;20216;-74
2023/10/30 06:41:24;;;;;;;9.20;6.65;;;;;;;11.27;65.94;95398.31;5119207;28;20176;-74
2023/10/30 06:43:51;;;;;;;9.18;6.20;;;;;;;11.38;65.28;95398.66;5118267;28;20195;-74
2023/10/30 06:46:19;;;;;;;9.45;6.10;;;;;;;11.53;65.08;95399.84;5101543;28;20231;-74
2023/10/30 06:48:46;;;;;;;9.07;6.55;;;;;;;11.63;64.51;95398.56;5118840;28;20184;-74
2023/10/30 06:51:13;;;;;;;11.23;6.90;;;;;;;11.70;64.70;95396.81;5119384;28;20198;-74
2023/10/30 06:53:40;;;;;;;7.18;6.10;;;;;;;11.79;64.07;95393.88;5102431;28;20184;-74
2023/10/30 06:56:07;;;;;;;8.50;6.30;;;;;;;11.88;63.87;95389.03;5119063;28;20202;-74
2023/10/30 06:58:34;;;;;;;8.48;7.65;;;;;;;11.98;63.61;95394.06;5101634;28;20223;-75
2023/10/30 07:01:04;;;;;;;9.40;8.30;;;;;;;12.03;63.05;95385.50;5118261;28;20239;-78
2023/10/30 07:03:34;;;;;;;9.00;8.02;;;;;;;12.15;62.86;95381.03;5101296;28;20219;-78
2023/10/30 07:06:02;;;;;;;10.30;7.50;;;;;;;12.26;62.77;95393.19;5118078;28;20187;-77
2023/10/30 07:08:30;;;;;;;7.65;6.50;;;;;;;12.37;62.59;95385.16;5100786;28;20192;-78
2023/10/30 07:10:57;;;;;;;11.43;8.15;;;;;;;12.48;62.31;95389.00;5118570;28;20187;-77
2023/10/30 07:13:25;;;;;;;9.10;7.18;;;;;;;12.59;61.72;95386.50;5101022;28;20290;-77
2023/10/30 07:15:51;;;;;;;8.30;6.55;;;;;;;12.69;61.69;95386.75;5118122;28;20525;-77
2023/10/30 07:18:18;;;;;;;9.02;6.90;;;;;;;12.82;61.79;95393.00;5117935;28;20207;-78
2023/10/30 07:20:46;;;;;;;9.77;7.10;;;;;;;12.93;61.64;95387.72;5100882;28;20214;-78
2023/10/30 07:23:13;;;;;;;8.90;7.32;;;;;;;13.05;61.10;95390.34;5100076;28;20316;-77
2023/10/30 07:25:40;;;;;;;11.55;8.07;;;;;;;13.15;60.93;95391.78;5117577;28;20180;-77
2023/10/30 07:28:07;;;;;;;13.80;11.18;;;;;;;13.27;60.31;95393.63;5100714;28;20195;-78
2023/10/30 07:30:34;;;;;;;14.43;12.35;;;;;;;13.45;60.56;95383.75;5118587;28;20180;-78
2023/10/30 07:33:01;;;;;;;13.77;10.18;;;;;;;13.60;60.43;95384.84;5118465;28;20198;-78
2023/10/30 07:35:27;;;;;;;14.77;11.20;;;;;;;13.72;60.42;95390.22;5101394;28;20192;-78
2023/10/30 07:37:57;;;;;;;12.85;11.18;;;;;;;13.76;60.48;95382.78;5119334;28;20219;-78
2023/10/30 07:40:26;;;;;;;14.80;11.48;;;;;;;13.80;60.40;95388.41;5101234;28;20191;-79
2023/10/30 07:42:53;;;;;;;12.50;9.88;;;;;;;13.86;60.70;95393.28;5102182;28;20208;-79
2023/10/30 07:45:20;;;;;;;12.75;9.77;;;;;;;13.91;59.86;95383.88;5101211;28;20179;-74
2023/10/30 07:47:46;;;;;;;11.98;8.50;;;;;;;13.97;59.95;95383.19;5099599;28;20207;-73
2023/10/30 07:50:13;;;;;;;10.85;9.27;;;;;;;14.02;59.57;95386.88;5117516;28;20192;-74
2023/10/30 07:52:42;;;;;;;10.70;8.82;;;;;;;14.01;60.00;95391.59;5099945;28;20207;-74
2023/10/30 07:55:11;;;;;;;13.60;9.55;;;;;;;14.02;59.85;95386.88;5117379;28;20180;-74
2023/10/30 07:57:37;;;;;;;11.10;9.57;;;;;;;14.08;59.32;95377.06;5100509;28;20196;-74
2023/10/30 08:00:07;;;;;;;10.38;8.93;;;;;;;14.12;59.21;95394.56;5118598;28;20180;-74
2023/10/30 08:02:34;;;;;;;11.38;8.95;;;;;;;14.15;58.68;95385.50;5100209;28;20227;-74
2023/10/30 08:05:00;;;;;;;14.05;8.93;;;;;;;14.21;58.63;95382.06;5100676;28;20200;-74
2023/10/30 08:07:28;;;;;;;12.70;9.23;;;;;;;14.29;58.59;95390.53;5100782;28;20199;-74
2023/10/30 08:09:55;;;;;;;12.50;9.18;;;;;;;14.41;58.16;95380.03;5100180;28;20207;-74
2023/10/30 08:12:24;;;;;;;11.77;8.77;;;;;;;14.55;58.57;95370.38;5117767;28;20180;-74
2023/10/30 08:14:52;;;;;;;10.45;9.40;;;;;;;14.68;58.30;95372.59;5117399;28;20574;-74
2023/10/30 08:17:18;;;;;;;10.90;8.95;;;;;;;14.77;57.60;95365.97;5099656;28;20272;-74
2023/10/30 08:19:45;;;;;;;12.27;8.50;;;;;;;14.87;58.32;95365.34;5099809;28;20207;-74
2023/10/30 08:22:12;;;;;;;12.00;8.32;;;;;;;14.95;57.72;95360.69;5117839;28;20198;-74
2023/10/30 08:24:39;;;;;;;12.57;9.07;;;;;;;15.00;57.49;95360.41;5117642;28;20267;-74
2023/10/30 08:27:06;;;;;;;10.15;8.45;;;;;;;15.12;55.91;95365.72;5100081;28;20192;-74
2023/10/30 08:29:34;;;;;;;12.13;8.60;;;;;;;15.21;56.46;95357.91;5100039;28;20195;-74
2023/10/30 08:32:01;;;;;;;13.07;9.55;;;;;;;15.34;56.09;95358.47;5118217;28;20183;-74
2023/10/30 08:34:28;;;;;;;13.35;9.48;;;;;;;15.47;56.56;95364.59;5116966;28;20271;-74
2023/10/30 08:36:55;;;;;;;11.98;8.50;;;;;;;15.49;55.21;95371.38;5099913;28;20200;-74
2023/10/30 08:39:21;;;;;;;10.05;7.53;;;;;;;15.49;54.67;95363.03;5117352;28;20210;-74
2023/10/30 08:41:48;;;;;;;10.73;7.40;;;;;;;15.56;55.31;95362.34;5117150;28;20200;-74
2023/10/30 08:44:15;;;;;;;10.70;7.07;;;;;;;15.77;54.45;95370.97;5116855;28;20207;-74
2023/10/30 08:46:43;;;;;;;12.77;7.65;;;;;;;15.89;53.14;95365.16;5116728;28;20211;-74
2023/10/30 08:49:10;;;;;;;9.90;6.78;;;;;;;15.94;53.93;95363.22;5099374;28;20199;-74
2023/10/30 08:51:40;;;;;;;11.07;7.22;;;;;;;16.07;54.02;95359.00;5098706;28;20191;-74
2023/10/30 08:54:07;;;;;;;9.93;6.22;;;;;;;16.34;51.65;95357.69;5116034;28;20560;-74
2023/10/30 08:56:34;;;;;;;8.77;6.07;;;;;;;16.43;52.14;95357.38;5099459;28;20207;-76
2023/10/30 08:59:03;;;;;;;7.53;5.82;;;;;;;16.58;53.44;95353.50;5098681;28;20226;-75
2023/10/30 09:01:31;;;;;;;10.98;7.90;;;;;;;16.70;52.13;95355.19;5098541;28;20224;-73
2023/10/30 09:03:59;;;;;;;8.25;7.07;;;;;;;16.88;53.50;95352.59;5098260;28;20303;-73
2023/10/30 09:06:27;;;;;;;10.73;6.97;;;;;;;17.02;52.90;95343.53;5097977;28;20276;-73
2023/10/30 09:08:54;;;;;;;11.52;8.10;;;;;;;17.13;52.01;95347.19;5099244;28;20207;-74
2023/10/30 09:11:21;;;;;;;8.82;7.10;;;;;;;17.20;52.57;95338.88;5116183;28;20236;-73
2023/10/30 09:13:49;;;;;;;10.05;7.75;;;;;;;17.23;51.59;95338.09;5098804;28;20207;-74
2023/10/30 09:16:15;;;;;;;10.18;7.18;;;;;;;17.29;51.42;95332.97;5116568;28;20207;-74
2023/10/30 09:18:45;;;;;;;9.93;6.97;;;;;;;17.52;50.27;95329.88;5098054;28;20208;-73
2023/10/30 09:21:13;;;;;;;9.48;6.28;;;;;;;17.60;52.03;95323.13;5115766;28;20180;-73
2023/10/30 09:23:42;;;;;;;9.65;5.95;;;;;;;17.73;51.05;95324.41;5098206;28;20195;-74
2023/10/30 09:26:11;;;;;;;9.13;6.15;;;;;;;17.77;50.78;95316.88;5097849;28;20195;-74
2023/10/30 09:28:38;;;;;;;8.80;5.15;;;;;;;17.84;51.91;95315.31;5098101;28;20202;-74
2023/10/30 09:31:05;;;;;;;9.02;4.95;;;;;;;17.94;52.37;95320.91;5098246;28;20260;-73
2023/10/30 09:33:32;;;;;;;9.07;4.78;;;;;;;18.02;50.48;95324.50;5115619;28;20184;-74
2023/10/30 09:35:58;;;;;;;8.13;4.47;;;;;;;18.13;50.17;95321.75;5097677;28;20188;-74
2023/10/30 09:38:27;;;;;;;8.07;4.55;;;;;;;18.18;51.42;95312.97;5097904;28;20231;-74
2023/10/30 09:40:59;;;;;;;7.47;4.93;;;;;;;18.27;50.50;95311.41;5098270;28;20196;-73
2023/10/30 09:43:28;;;;;;;6.78;5.32;;;;;;;18.35;50.29;95301.03;5098541;28;20522;-74
2023/10/30 09:45:57;;;;;;;8.02;5.70;;;;;;;18.48;51.36;95304.22;5098511;28;20229;-74
2023/10/30 09:48:25;;;;;;;10.32;6.30;;;;;;;18.59;49.21;95296.69;5115871;28;20207;-74
2023/10/30 09:50:53;;;;;;;10.85;6.07;;;;;;;18.66;48.84;95287.47;5115162;28;20186;-74
2023/10/30 09:53:20;;;;;;;9.93;6.10;;;;;;;18.59;50.45;95287.47;5115536;28;20184;-73
2023/10/30 09:55:49;;;;;;;10.68;7.45;;;;;;;18.63;49.25;95286.28;5115515;28;20184;-73
2023/10/30 09:58:16;;;;;;;8.23;6.63;;;;;;;18.74;48.71;95270.34;5115389;28;20188;-73
2023/10/30 10:00:47;;;;;;;10.13;6.45;;;;;;;18.80;49.21;95276.31;5116749;28;20287;-73
2023/10/30 10:03:15;;;;;;;7.45;6.55;;;;;;;18.92;48.37;95267.53;5098623;28;20239;-73
2023/10/30 10:05:41;;;;;;;10.07;6.68;;;;;;;19.06;49.38;95254.69;5115854;28;20180;-73
2023/10/30 10:08:09;;;;;;;8.40;6.78;;;;;;;19.11;48.93;95255.09;5115518;28;20615;-73
2023/10/30 10:10:59;;;;;;;12.20;7.35;;;;;;;19.19;49.57;95253.06;5115922;28;20173;-73
2023/10/30 10:13:27;;;;;;;8.90;5.32;;;;;;;19.31;48.94;95251.84;5098264;28;20223;-73
2023/10/30 10:15:54;;;;;;;8.50;6.03;;;;;;;19.39;48.39;95245.81;5098260;28;20200;-73
2023/10/30 10:18:25;;;;;;;8.38;6.05;;;;;;;19.44;47.72;95239.78;5119614;28;20580;-73
2023/10/30 10:20:56;;;;;;;6.55;5.60;;;;;;;19.48;47.83;95237.00;5119826;28;20237;-73
2023/10/30 10:23:23;;;;;;;7.28;5.15;;;;;;;19.51;48.76;95233.38;5101247;28;20204;-73
2023/10/30 10:25:55;;;;;;;6.32;5.28;;;;;;;19.54;47.54;95228.97;5102086;28;20203;-73
2023/10/30 10:28:23;;;;;;;7.47;4.82;;;;;;;19.61;48.24;95226.94;5084631;28;20211;-73
2023/10/30 10:30:51;;;;;;;8.35;5.25;;;;;;;19.68;46.55;95226.09;5101648;28;20195;-73
2023/10/30 10:33:19;;;;;;;4.95;4.45;;;;;;;19.70;48.03;95223.72;5119590;28;20188;-73
2023/10/30 10:35:48;;;;;;;7.32;5.10;;;;;;;19.74;46.90;95218.09;5119998;28;20242;-73
2023/10/30 10:38:16;;;;;;;6.57;4.70;;;;;;;19.74;46.57;95218.09;5119260;28;20199;-73
2023/10/30 10:40:44;;;;;;;5.30;3.83;;;;;;;19.77;46.86;95215.28;5102335;28;20212;-73
2023/10/30 10:43:12;;;;;;;9.35;4.88;;;;;;;19.82;46.94;95214.84;5101581;28;20195;-74
2023/10/30 10:45:41;;;;;;;5.75;4.15;;;;;;;19.88;47.11;95210.41;5101763;28;20199;-74
2023/10/30 10:48:09;;;;;;;8.70;4.57;;;;;;;19.91;47.59;95211.59;5100610;28;20188;-74
2023/10/30 10:50:36;;;;;;;8.10;5.07;;;;;;;19.96;47.05;95202.75;5100397;28;20195;-73
2023/10/30 10:53:04;;;;;;;10.20;4.97;;;;;;;20.01;46.63;95196.75;5118839;28;20201;-73
2023/10/30 10:55:34;;;;;;;6.50;3.97;;;;;;;20.09;45.18;95195.47;5100978;28;20228;-74
2023/10/30 10:58:09;;;;;;;4.40;3.78;;;;;;;20.13;45.39;95198.25;5118356;28;20206;-73
2023/10/30 11:00:38;;;;;;;7.85;4.10;;;;;;;20.18;44.24;95193.00;5100598;28;20276;-73
2023/10/30 11:03:08;;;;;;;7.22;3.90;;;;;;;20.23;44.45;95188.97;5100247;28;20227;-73
2023/10/30 11:05:35;;;;;;;5.15;3.55;;;;;;;20.25;44.36;95185.75;5100318;28;20204;-73
2023/10/30 11:08:09;;;;;;;4.32;3.45;;;;;;;20.26;43.78;95181.72;5118213;28;20192;-73
2023/10/30 11:10:39;;;;;;;5.38;3.25;;;;;;;20.29;43.97;95178.91;5118364;28;20175;-74
2023/10/30 11:13:15;;;;;;;6.75;3.42;;;;;;;20.34;44.38;95177.69;5101377;28;20203;-74
2023/10/30 11:15:46;;;;;;;4.22;3.00;;;;;;;20.37;44.06;95177.66;5118470;28;20210;-73
2023/10/30 11:18:20;;;;;;;4.53;2.72;;;;;;;20.36;43.25;95169.66;5100570;28;20196;-73
2023/10/30 11:20:47;;;;;;;3.78;2.88;;;;;;;20.38;42.22;95170.03;5100832;28;20305;-73
2023/10/30 11:23:48;;;;;;;4.03;3.00;;;;;;;20.42;43.00;95160.38;5100569;28;20207;-74
2023/10/30 11:26:37;;;;;;;4.72;3.33;;;;;;;20.46;42.59;95151.94;5118417;28;20194;-74
2023/10/30 11:29:05;;;;;;;4.22;2.30;;;;;;;20.49;40.54;95147.53;5117730;28;20202;-74
2023/10/30 11:31:33;;;;;;;4.50;2.38;;;;;;;20.50;40.71;95149.13;5099858;28;20572;-74
2023/10/30 11:34:14;;;;;;;3.50;2.70;;;;;;;20.55;42.06;95151.47;5099903;28;20240;-74
2023/10/30 11:36:41;;;;;;;4.25;2.95;;;;;;;20.64;42.47;95144.19;5117717;28;20187;-74